createdAt,value
2024-01-15T00:01:54.535Z,82.71
2024-01-15T00:03:56.305Z,82.45
2024-01-15T00:05:58.133Z,82.48
2024-01-15T00:07:59.869Z,82.62
2024-01-15T00:10:01.698Z,82.54
2024-01-15T00:12:03.973Z,82.37
2024-01-15T00:14:05.818Z,82.63
2024-01-15T00:16:07.614Z,82.47
2024-01-15T00:18:09.607Z,82.54
2024-01-15T00:20:11.870Z,82.33
2024-01-15T00:22:13.628Z,82.43
2024-01-15T00:24:15.440Z,82.15
2024-01-15T00:26:17.256Z,81.62
2024-01-15T00:28:19.039Z,81.52
2024-01-15T00:30:20.854Z,81.18
2024-01-15T00:32:22.749Z,81.23
2024-01-15T00:34:24.789Z,80.41
2024-01-15T00:36:27.149Z,80.37
2024-01-15T00:38:28.848Z,80.18
2024-01-15T00:40:30.582Z,80.12
2024-01-15T00:42:32.399Z,80.06
2024-01-15T00:44:34.197Z,79.40
2024-01-15T00:46:44.864Z,79.42
2024-01-15T00:48:46.838Z,79.34
2024-01-15T00:50:48.629Z,79.53
2024-01-15T00:52:50.384Z,79.70
2024-01-15T00:54:52.199Z,79.67
2024-01-15T00:56:53.984Z,79.72
2024-01-15T00:58:55.793Z,80.01
2024-01-15T01:00:57.667Z,80.05
2024-01-15T01:02:59.562Z,80.09
2024-01-15T01:05:01.443Z,80.16
2024-01-15T01:07:03.343Z,80.24
2024-01-15T01:09:05.080Z,80.50
2024-01-15T01:11:08.227Z,80.75
2024-01-15T01:13:10.816Z,80.90
2024-01-15T01:15:12.690Z,80.94
2024-01-15T01:17:14.500Z,80.71
2024-01-15T01:19:16.424Z,80.87
2024-01-15T01:21:18.399Z,81.03
2024-01-15T01:23:20.112Z,80.99
2024-01-15T01:25:21.948Z,81.11
2024-01-15T01:27:23.791Z,81.15
2024-01-15T01:29:25.656Z,81.13
2024-01-15T01:31:27.518Z,81.26
2024-01-15T01:33:29.468Z,81.25
2024-01-15T01:35:31.265Z,81.59
2024-01-15T01:37:33.733Z,81.53
2024-01-15T01:39:35.509Z,81.89
2024-01-15T01:41:37.509Z,82.23
2024-01-15T01:43:39.231Z,82.62
2024-01-15T01:45:41.059Z,82.75
2024-01-15T01:47:43.118Z,82.78
2024-01-15T01:49:45.067Z,83.36
2024-01-15T01:51:48.814Z,83.48
2024-01-15T01:53:51.866Z,83.86
2024-01-15T01:55:54.737Z,83.82
2024-01-15T01:57:57.069Z,84.23
2024-01-15T01:59:59.523Z,84.35
2024-01-15T02:02:02.505Z,84.71
2024-01-15T02:04:05.936Z,84.76
2024-01-15T02:06:07.861Z,85.09
2024-01-15T02:08:09.890Z,84.90
2024-01-15T02:10:11.839Z,85.03
2024-01-15T02:12:13.805Z,85.38
2024-01-15T02:14:16.206Z,85.19
2024-01-15T02:16:18.982Z,85.20
2024-01-15T02:18:21.625Z,85.19
2024-01-15T02:20:23.487Z,85.34
2024-01-15T02:22:25.187Z,85.49
2024-01-15T02:24:27.186Z,85.13
2024-01-15T02:26:29.672Z,85.16
2024-01-15T02:28:31.919Z,85.14
2024-01-15T02:30:34.205Z,85.37
2024-01-15T02:32:35.976Z,85.06
2024-01-15T02:34:37.813Z,85.13
2024-01-15T02:36:39.720Z,84.99
2024-01-15T02:38:42.888Z,85.07
2024-01-15T02:40:46.704Z,85.22
2024-01-15T02:42:48.552Z,84.81
2024-01-15T02:44:50.582Z,84.80
2024-01-15T02:46:52.346Z,84.72
2024-01-15T02:48:54.172Z,84.79
2024-01-15T02:50:55.949Z,84.54
2024-01-15T02:52:57.686Z,84.97
2024-01-15T02:54:59.443Z,84.79
2024-01-15T02:57:01.175Z,84.65
2024-01-15T02:59:02.978Z,84.77
2024-01-15T03:01:05.105Z,84.57
2024-01-15T03:03:07.084Z,84.35
2024-01-15T03:05:09.132Z,84.32
2024-01-15T03:07:10.951Z,84.15
2024-01-15T03:09:12.744Z,84.19
2024-01-15T03:11:14.498Z,84.43
2024-01-15T03:13:16.253Z,84.63
2024-01-15T03:15:19.729Z,84.36
2024-01-15T03:17:21.540Z,84.48
2024-01-15T03:19:23.568Z,84.52
2024-01-15T03:21:25.370Z,84.53
2024-01-15T03:23:27.118Z,84.77
2024-01-15T03:25:28.887Z,84.52
2024-01-15T03:27:30.859Z,84.17
2024-01-15T03:29:32.611Z,84.36
2024-01-15T03:31:34.544Z,84.27
2024-01-15T03:33:36.449Z,84.35
2024-01-15T03:35:38.228Z,84.55
2024-01-15T03:37:40.002Z,84.51
2024-01-15T03:39:41.842Z,84.36
2024-01-15T03:41:43.665Z,84.28
2024-01-15T03:43:45.443Z,84.39
2024-01-15T03:45:47.231Z,84.13
2024-01-15T03:47:49.168Z,84.25
2024-01-15T03:49:51.094Z,83.99
2024-01-15T03:51:52.934Z,84.24
2024-01-15T03:53:54.734Z,83.99
2024-01-15T03:55:56.526Z,84.11
2024-01-15T03:57:58.350Z,83.98
2024-01-15T04:00:00.087Z,84.18
2024-01-15T04:02:01.891Z,84.20
2024-01-15T04:04:03.697Z,84.31
2024-01-15T04:06:06.234Z,84.19
2024-01-15T04:08:08.104Z,84.29
2024-01-15T04:10:10.510Z,84.30
2024-01-15T04:12:12.293Z,84.04
2024-01-15T04:14:14.028Z,84.21
2024-01-15T04:16:15.750Z,84.00
2024-01-15T04:18:19.516Z,84.25
2024-01-15T04:20:23.775Z,84.21
2024-01-15T04:22:28.361Z,84.19
2024-01-15T04:24:30.209Z,84.15
2024-01-15T04:26:31.990Z,84.01
2024-01-15T04:28:33.716Z,83.79
2024-01-15T04:30:35.505Z,83.66
2024-01-15T04:32:37.483Z,83.63
2024-01-15T04:34:39.483Z,83.66
2024-01-15T04:36:42.583Z,83.40
2024-01-15T04:38:44.512Z,83.32
2024-01-15T04:40:46.327Z,83.13
2024-01-15T04:42:48.141Z,83.23
2024-01-15T04:44:49.965Z,82.98
2024-01-15T04:46:51.672Z,83.13
2024-01-15T04:48:53.724Z,83.09
2024-01-15T04:50:55.464Z,83.23
2024-01-15T04:52:57.188Z,83.56
2024-01-15T04:54:58.931Z,83.35
2024-01-15T04:57:00.661Z,83.36
2024-01-15T04:59:02.732Z,83.60
2024-01-15T05:01:05.237Z,83.58
2024-01-15T05:03:07.153Z,83.53
2024-01-15T05:05:09.104Z,83.65
2024-01-15T05:07:10.859Z,83.69
2024-01-15T05:09:13.201Z,83.94
2024-01-15T05:11:14.938Z,83.71
2024-01-15T05:13:16.664Z,83.73
2024-01-15T05:15:18.565Z,83.96
2024-01-15T05:17:20.368Z,83.85
2024-01-15T05:19:22.218Z,84.08
2024-01-15T05:21:23.980Z,84.16
2024-01-15T05:23:25.862Z,84.19
2024-01-15T05:25:27.708Z,84.04
2024-01-15T05:27:29.455Z,84.13
2024-01-15T05:29:31.225Z,84.43
2024-01-15T05:31:33.101Z,84.62
2024-01-15T05:33:34.992Z,84.44
2024-01-15T05:35:36.782Z,84.70
2024-01-15T05:37:38.522Z,84.39
2024-01-15T05:39:40.255Z,84.77
2024-01-15T05:41:42.097Z,84.82
2024-01-15T05:43:43.833Z,84.81
2024-01-15T05:45:46.116Z,84.78
2024-01-15T05:47:48.028Z,84.87
2024-01-15T05:49:49.832Z,84.91
2024-01-15T05:51:52.693Z,84.89
2024-01-15T05:53:54.491Z,84.90
2024-01-15T05:55:57.413Z,85.00
2024-01-15T05:57:59.242Z,84.97
2024-01-15T06:00:01.569Z,84.89
2024-01-15T06:02:03.395Z,85.12
2024-01-15T06:04:05.798Z,85.14
2024-01-15T06:06:07.830Z,85.19
2024-01-15T06:08:09.593Z,85.00
2024-01-15T06:10:11.493Z,84.97
2024-01-15T06:12:13.835Z,84.72
2024-01-15T06:14:15.554Z,84.68
2024-01-15T06:16:18.132Z,84.86
2024-01-15T06:18:20.286Z,84.89
2024-01-15T06:20:22.411Z,84.79
2024-01-15T06:22:24.201Z,84.68
2024-01-15T06:24:26.017Z,84.59
2024-01-15T06:26:27.806Z,84.87
2024-01-15T06:28:29.549Z,84.84
2024-01-15T06:30:31.675Z,84.75
2024-01-15T06:32:33.639Z,84.97
2024-01-15T06:34:35.522Z,85.08
2024-01-15T06:36:37.530Z,84.99
2024-01-15T06:38:39.467Z,84.80
2024-01-15T06:40:46.842Z,84.91
2024-01-15T06:42:49.424Z,84.75
2024-01-15T06:44:51.240Z,84.75
2024-01-15T06:46:53.147Z,85.01
2024-01-15T06:48:55.110Z,84.95
2024-01-15T06:50:56.963Z,84.73
2024-01-15T06:52:58.685Z,84.97
2024-01-15T06:55:00.453Z,84.55
2024-01-15T06:57:02.235Z,84.55
2024-01-15T06:59:04.577Z,84.70
2024-01-15T07:01:07.119Z,84.56
2024-01-15T07:03:09.140Z,84.57
2024-01-15T07:05:11.109Z,84.59
2024-01-15T07:07:13.087Z,84.77
2024-01-15T07:09:14.901Z,85.06
2024-01-15T07:11:16.840Z,85.17
2024-01-15T07:13:18.995Z,85.45
2024-01-15T07:15:20.913Z,85.39
2024-01-15T07:17:22.652Z,85.54
2024-01-15T07:19:24.527Z,85.82
2024-01-15T07:21:26.345Z,85.75
2024-01-15T07:23:31.289Z,85.75
2024-01-15T07:25:33.207Z,86.15
2024-01-15T07:27:35.090Z,86.12
2024-01-15T07:29:39.926Z,86.25
2024-01-15T07:31:41.790Z,86.19
2024-01-15T07:33:43.714Z,86.28
2024-01-15T07:35:45.675Z,86.23
2024-01-15T07:37:47.493Z,86.10
2024-01-15T07:39:49.541Z,86.16
2024-01-15T07:41:51.644Z,86.48
2024-01-15T07:43:53.347Z,86.38
2024-01-15T07:45:55.140Z,86.38
2024-01-15T07:47:57.001Z,85.98
2024-01-15T07:50:03.108Z,86.05
2024-01-15T07:52:07.630Z,86.06
2024-01-15T07:54:09.415Z,86.04
2024-01-15T07:56:11.387Z,86.21
2024-01-15T07:58:16.523Z,85.92
2024-01-15T08:00:19.012Z,85.97
2024-01-15T08:02:20.776Z,85.98
2024-01-15T08:04:23.496Z,85.77
2024-01-15T08:06:25.757Z,85.71
2024-01-15T08:08:27.801Z,85.27
2024-01-15T08:10:30.321Z,85.37
2024-01-15T08:12:32.137Z,85.28
2024-01-15T08:14:33.889Z,84.80
2024-01-15T08:16:35.714Z,84.87
2024-01-15T08:18:37.489Z,84.83
2024-01-15T08:20:39.773Z,84.58
2024-01-15T08:22:41.567Z,84.35
2024-01-15T08:24:43.305Z,84.51
2024-01-15T08:26:45.257Z,84.67
2024-01-15T08:28:47.008Z,84.66
2024-01-15T08:30:48.787Z,84.73
2024-01-15T08:32:50.591Z,84.69
2024-01-15T08:34:53.641Z,84.61
2024-01-15T08:36:55.520Z,84.59
2024-01-15T08:38:57.325Z,84.54
2024-01-15T08:41:01.604Z,84.40
2024-01-15T08:43:03.471Z,84.29
2024-01-15T08:45:05.727Z,84.65
2024-01-15T08:47:07.530Z,84.44
2024-01-15T08:49:09.830Z,84.48
2024-01-15T08:51:11.658Z,84.58
2024-01-15T08:53:14.363Z,84.36
2024-01-15T08:55:16.066Z,84.53
2024-01-15T08:57:17.856Z,84.38
2024-01-15T08:59:25.882Z,84.30
2024-01-15T09:01:27.947Z,84.11
2024-01-15T09:03:29.803Z,84.11
2024-01-15T09:05:31.670Z,84.30
2024-01-15T09:07:33.798Z,84.21
2024-01-15T09:09:36.384Z,84.06
2024-01-15T09:11:38.190Z,83.80
2024-01-15T09:13:39.929Z,83.78
2024-01-15T09:15:46.452Z,83.85
2024-01-15T09:17:48.255Z,83.84
2024-01-15T09:19:50.573Z,83.56
2024-01-15T09:21:52.402Z,83.81
2024-01-15T09:23:54.569Z,83.41
2024-01-15T09:25:56.318Z,83.34
2024-01-15T09:27:58.555Z,83.27
2024-01-15T09:30:00.385Z,83.54
2024-01-15T09:32:04.474Z,83.60
2024-01-15T09:34:06.308Z,83.59
2024-01-15T09:36:08.782Z,83.57
2024-01-15T09:38:10.491Z,83.81
2024-01-15T09:40:18.737Z,83.50
2024-01-15T09:42:22.474Z,83.23
2024-01-15T09:44:24.575Z,83.21
2024-01-15T09:46:26.370Z,83.11
2024-01-15T09:48:28.312Z,83.27
2024-01-15T09:50:30.257Z,83.23
2024-01-15T09:52:32.375Z,83.23
2024-01-15T09:54:34.985Z,83.32
2024-01-15T09:56:36.881Z,83.45
2024-01-15T09:58:39.978Z,83.47
2024-01-15T10:00:45.150Z,83.46
2024-01-15T10:02:47.653Z,83.64
2024-01-15T10:04:49.454Z,83.67
2024-01-15T10:06:53.562Z,83.57
2024-01-15T10:08:57.853Z,83.72
2024-01-15T10:10:59.585Z,83.38
2024-01-15T10:13:01.653Z,83.51
2024-01-15T10:15:03.766Z,83.09
2024-01-15T10:17:16.539Z,83.43
2024-01-15T10:19:18.293Z,83.36
2024-01-15T10:21:20.455Z,83.52
2024-01-15T10:23:22.264Z,83.49
2024-01-15T10:25:27.278Z,83.29
2024-01-15T10:27:29.244Z,83.45
2024-01-15T10:29:30.991Z,83.78
2024-01-15T10:31:32.909Z,83.80
2024-01-15T10:33:35.041Z,83.85
2024-01-15T10:35:37.247Z,84.04
2024-01-15T10:37:39.030Z,83.64
2024-01-15T10:39:40.919Z,83.76
2024-01-15T10:41:42.841Z,83.73
2024-01-15T10:43:46.389Z,83.76
2024-01-15T10:45:49.682Z,83.46
2024-01-15T10:47:51.651Z,83.65
2024-01-15T10:49:54.234Z,83.49
2024-01-15T10:51:57.749Z,83.95
2024-01-15T10:54:01.233Z,84.01
2024-01-15T10:56:05.103Z,84.00
2024-01-15T10:58:08.735Z,84.29
2024-01-15T11:00:13.827Z,84.08
2024-01-15T11:02:16.581Z,84.21
2024-01-15T11:04:18.572Z,84.40
2024-01-15T11:06:21.363Z,84.49
2024-01-15T11:08:25.802Z,84.60
2024-01-15T11:10:58.671Z,84.65
2024-01-15T11:13:00.459Z,84.87
2024-01-15T11:15:05.732Z,85.04
2024-01-15T11:17:08.061Z,84.70
2024-01-15T11:19:10.422Z,84.61
2024-01-15T11:21:16.377Z,84.39
2024-01-15T11:23:53.343Z,83.59
2024-01-15T11:25:56.568Z,83.24
2024-01-15T11:27:58.428Z,83.06
2024-01-15T11:30:11.264Z,82.68
2024-01-15T11:32:13.092Z,82.35
2024-01-15T11:34:14.877Z,82.73
2024-01-15T11:36:16.809Z,82.63
2024-01-15T11:38:30.511Z,82.59
2024-01-15T11:40:35.370Z,82.42
2024-01-15T11:42:37.319Z,82.48
2024-01-15T11:44:40.046Z,82.28
2024-01-15T11:46:49.050Z,82.18
2024-01-15T11:49:01.718Z,82.48
2024-01-15T11:51:04.347Z,82.12
2024-01-15T11:53:15.814Z,82.47
2024-01-15T11:55:29.864Z,82.48
2024-01-15T11:57:41.252Z,82.11
2024-01-15T11:59:43.385Z,81.92
2024-01-15T12:01:45.472Z,81.96
2024-01-15T12:03:48.787Z,81.50
2024-01-15T12:05:51.090Z,81.78
2024-01-15T12:07:52.820Z,81.43
2024-01-15T12:09:54.687Z,81.41
2024-01-15T12:12:08.729Z,81.75
2024-01-15T12:14:10.493Z,81.41
2024-01-15T12:16:13.909Z,81.51
2024-01-15T12:18:18.524Z,82.06
2024-01-15T12:20:20.736Z,82.11
2024-01-15T12:22:22.489Z,82.23
2024-01-15T12:24:24.438Z,81.87
2024-01-15T12:26:26.315Z,82.49
2024-01-15T12:28:29.513Z,82.76
2024-01-15T12:30:35.585Z,82.45
2024-01-15T12:32:38.204Z,82.82
2024-01-15T12:34:40.062Z,82.50
2024-01-15T12:36:42.404Z,82.86
2024-01-15T12:38:45.600Z,82.93
2024-01-15T12:40:49.965Z,82.72
2024-01-15T12:42:51.842Z,82.27
2024-01-15T12:44:53.693Z,82.11
2024-01-15T12:46:56.103Z,82.14
2024-01-15T12:48:58.741Z,82.27
2024-01-15T12:51:00.669Z,82.00
2024-01-15T12:53:03.232Z,82.10
2024-01-15T12:55:08.238Z,81.70
2024-01-15T12:57:09.953Z,81.83
2024-01-15T12:59:11.707Z,81.89
2024-01-15T13:01:13.597Z,81.95
2024-01-15T13:03:15.506Z,81.94
2024-01-15T13:05:18.257Z,82.33
2024-01-15T13:07:20.386Z,82.40
2024-01-15T13:09:22.253Z,82.89
2024-01-15T13:11:24.041Z,82.94
2024-01-15T13:13:26.005Z,83.03
2024-01-15T13:15:28.016Z,83.49
2024-01-15T13:17:30.050Z,83.47
2024-01-15T13:19:32.001Z,83.71
2024-01-15T13:21:33.915Z,83.78
2024-01-15T13:23:35.669Z,84.14
2024-01-15T13:25:39.505Z,83.92
2024-01-15T13:27:42.268Z,83.91
2024-01-15T13:29:44.722Z,84.19
2024-01-15T13:31:47.837Z,83.94
2024-01-15T13:33:49.710Z,84.26
2024-01-15T13:35:51.516Z,83.96
2024-01-15T13:37:54.375Z,84.04
2024-01-15T13:39:57.720Z,84.26
2024-01-15T13:41:59.534Z,84.02
2024-01-15T13:44:01.263Z,84.33
2024-01-15T13:46:06.076Z,84.37
2024-01-15T13:48:09.464Z,84.53
2024-01-15T13:50:11.450Z,84.64
2024-01-15T13:52:14.287Z,84.99
2024-01-15T13:54:16.217Z,85.21
2024-01-15T13:56:20.314Z,85.41
2024-01-15T13:58:23.210Z,85.58
2024-01-15T14:00:25.061Z,85.45
2024-01-15T14:02:27.864Z,85.69
2024-01-15T14:04:29.845Z,85.51
2024-01-15T14:06:31.704Z,85.72
2024-01-15T14:08:33.502Z,85.59
2024-01-15T14:10:35.340Z,85.67
2024-01-15T14:12:41.062Z,85.96
2024-01-15T14:14:42.818Z,85.76
2024-01-15T14:16:44.534Z,85.81
2024-01-15T14:18:46.434Z,85.95
2024-01-15T14:20:49.249Z,85.98
2024-01-15T14:22:51.026Z,85.72
2024-01-15T14:24:53.669Z,85.84
2024-01-15T14:26:55.547Z,86.08
2024-01-15T14:28:57.288Z,85.91
2024-01-15T14:31:02.078Z,86.08
2024-01-15T14:33:04.040Z,86.06
2024-01-15T14:35:07.276Z,85.79
2024-01-15T14:37:09.058Z,85.92
2024-01-15T14:39:11.515Z,86.22
2024-01-15T14:41:13.304Z,85.91
2024-01-15T14:43:15.031Z,85.88
2024-01-15T14:45:16.841Z,85.74
2024-01-15T14:47:18.595Z,85.63
2024-01-15T14:49:20.463Z,85.93
2024-01-15T14:51:22.439Z,85.68
2024-01-15T14:53:24.217Z,85.71
2024-01-15T14:55:26.644Z,85.66
2024-01-15T14:57:28.419Z,85.96
2024-01-15T14:59:31.052Z,85.90
2024-01-15T15:01:32.962Z,86.06
2024-01-15T15:03:34.910Z,85.81
2024-01-15T15:05:37.029Z,86.03
2024-01-15T15:07:39.910Z,85.85
2024-01-15T15:09:41.823Z,86.14
2024-01-15T15:11:43.609Z,85.97
2024-01-15T15:13:46.188Z,85.87
2024-01-15T15:15:48.174Z,86.22
2024-01-15T15:17:49.957Z,86.15
2024-01-15T15:19:55.156Z,86.11
2024-01-15T15:21:57.312Z,86.04
2024-01-15T15:23:59.113Z,85.98
2024-01-15T15:26:00.936Z,86.38
2024-01-15T15:28:03.436Z,86.29
2024-01-15T15:30:05.899Z,86.37
2024-01-15T15:32:07.654Z,86.35
2024-01-15T15:34:09.789Z,86.17
2024-01-15T15:36:11.924Z,86.07
2024-01-15T15:38:13.653Z,86.20
2024-01-15T15:40:15.534Z,86.13
2024-01-15T15:42:17.396Z,86.07
2024-01-15T15:44:19.203Z,86.36
2024-01-15T15:46:21.078Z,86.54
2024-01-15T15:48:22.964Z,86.28
2024-01-15T15:50:25.007Z,86.43
2024-01-15T15:52:26.860Z,86.31
2024-01-15T15:54:28.651Z,86.44
2024-01-15T15:56:30.394Z,86.55
2024-01-15T15:58:32.361Z,86.40
2024-01-15T16:00:34.203Z,86.47
2024-01-15T16:02:36.192Z,86.56
2024-01-15T16:04:38.043Z,86.68
2024-01-15T16:06:39.983Z,86.64
2024-01-15T16:08:42.001Z,86.62
2024-01-15T16:10:47.600Z,86.59
2024-01-15T16:12:49.434Z,86.56
2024-01-15T16:14:51.246Z,86.56
2024-01-15T16:23:13.288Z,86.69
2024-01-15T16:23:24.535Z,86.61
2024-01-15T16:23:37.583Z,86.63
2024-01-15T16:24:16.006Z,86.73
2024-01-15T16:26:24.520Z,86.44
2024-01-15T16:28:26.610Z,86.39
2024-01-15T16:30:33.778Z,86.65
2024-01-15T16:32:43.562Z,86.38
2024-01-15T16:34:45.350Z,86.34
2024-01-15T16:36:47.095Z,86.70
2024-01-15T16:38:48.896Z,86.45
2024-01-15T16:40:50.929Z,86.48
2024-01-15T16:42:52.676Z,86.27
2024-01-15T16:44:54.379Z,86.23
2024-01-15T16:47:03.677Z,86.41
2024-01-15T16:49:11.434Z,86.06
2024-01-15T16:51:13.505Z,86.33
2024-01-15T16:53:15.388Z,86.04
2024-01-15T16:55:18.219Z,86.14
2024-01-15T16:57:20.020Z,85.92
2024-01-15T16:59:21.767Z,86.25
2024-01-15T17:01:24.288Z,86.58
2024-01-15T17:03:26.135Z,86.00
2024-01-15T17:05:28.265Z,86.12
2024-01-15T17:07:30.092Z,85.98
2024-01-15T17:09:31.810Z,86.02
2024-01-15T17:11:33.780Z,85.86
2024-01-15T17:13:35.646Z,85.86
2024-01-15T17:15:38.486Z,86.08
2024-01-15T17:17:40.257Z,85.94
2024-01-15T17:19:42.014Z,85.69
2024-01-15T17:21:43.737Z,85.71
2024-01-15T17:23:45.918Z,85.68
2024-01-15T17:25:47.791Z,85.70
2024-01-15T17:27:49.582Z,85.43
2024-01-15T17:29:53.193Z,85.43
2024-01-15T17:31:54.947Z,85.48
2024-01-15T17:33:59.739Z,85.34
2024-01-15T17:36:02.106Z,85.25
2024-01-15T17:38:04.146Z,85.21
2024-01-15T17:40:07.195Z,85.14
2024-01-15T17:42:10.250Z,85.27
2024-01-15T17:44:16.121Z,85.47
2024-01-15T17:46:17.840Z,85.00
2024-01-15T17:48:19.610Z,85.09
2024-01-15T17:50:21.687Z,84.89
2024-01-15T17:52:24.735Z,85.11
2024-01-15T17:54:26.642Z,84.76
2024-01-15T17:56:29.163Z,84.65
2024-01-15T17:58:32.117Z,84.90
2024-01-15T18:00:33.942Z,84.53
2024-01-15T18:02:36.076Z,84.65
2024-01-15T18:04:37.947Z,84.71
2024-01-15T18:06:39.822Z,84.89
2024-01-15T18:08:41.732Z,84.83
2024-01-15T18:10:43.601Z,84.57
2024-01-15T18:12:45.476Z,84.81
2024-01-15T18:14:47.210Z,84.78
2024-01-15T18:16:52.251Z,84.61
2024-01-15T18:18:54.295Z,84.96
2024-01-15T18:20:56.147Z,84.91
2024-01-15T18:22:57.950Z,85.31
2024-01-15T18:24:59.729Z,85.33
2024-01-15T18:27:04.489Z,85.35
2024-01-15T18:29:06.192Z,85.50
2024-01-15T18:31:08.734Z,85.36
2024-01-15T18:33:10.645Z,85.36
2024-01-15T18:35:12.479Z,85.64
2024-01-15T18:37:14.570Z,85.52
2024-01-15T18:39:18.170Z,85.35
2024-01-15T18:41:21.660Z,85.44
2024-01-15T18:43:23.575Z,85.50
2024-01-15T18:45:25.403Z,85.34
2024-01-15T18:47:27.244Z,85.40
2024-01-15T18:49:29.142Z,85.30
2024-01-15T18:51:31.041Z,84.96
2024-01-15T18:53:32.888Z,85.16
2024-01-15T18:55:34.694Z,85.31
2024-01-15T18:57:36.538Z,85.13
2024-01-15T18:59:39.053Z,85.39
2024-01-15T19:01:41.130Z,85.44
2024-01-15T19:03:42.981Z,85.35
2024-01-15T19:05:45.714Z,85.24
2024-01-15T19:07:47.840Z,85.46
2024-01-15T19:09:49.590Z,85.28
2024-01-15T19:11:51.293Z,85.39
2024-01-15T19:13:52.992Z,85.30
2024-01-15T19:15:54.864Z,85.45
2024-01-15T19:17:56.701Z,85.01
2024-01-15T19:19:58.539Z,85.36
2024-01-15T19:22:00.271Z,85.18
2024-01-15T19:24:03.710Z,84.79
2024-01-15T19:26:05.683Z,84.74
2024-01-15T19:28:08.510Z,84.46
2024-01-15T19:30:12.671Z,84.37
2024-01-15T19:32:14.503Z,84.13
2024-01-15T19:34:16.612Z,84.28
2024-01-15T19:36:25.992Z,84.34
2024-01-15T19:38:27.792Z,84.30
2024-01-15T19:40:30.924Z,84.29
2024-01-15T19:42:32.724Z,84.16
2024-01-15T19:44:34.545Z,84.37
2024-01-15T19:46:36.566Z,84.10
2024-01-15T19:48:38.438Z,84.26
2024-01-15T19:50:41.622Z,84.31
2024-01-15T19:52:43.461Z,84.55
2024-01-15T19:54:45.253Z,84.31
2024-01-15T19:56:47.094Z,84.44
2024-01-15T19:58:48.887Z,84.37
2024-01-15T20:00:50.824Z,84.15
2024-01-15T20:02:52.736Z,84.18
2024-01-15T20:04:54.472Z,84.18
2024-01-15T20:06:56.282Z,83.89
2024-01-15T20:08:58.760Z,83.71
2024-01-15T20:11:00.596Z,83.75
2024-01-15T20:13:02.725Z,83.74
2024-01-15T20:15:04.976Z,83.66
2024-01-15T20:17:06.757Z,83.54
2024-01-15T20:19:08.668Z,83.63
2024-01-15T20:21:11.661Z,83.63
2024-01-15T20:23:13.712Z,83.63
2024-01-15T20:25:15.491Z,83.68
2024-01-15T20:27:17.728Z,83.52
2024-01-15T20:29:20.212Z,83.30
2024-01-15T20:31:22.014Z,83.46
2024-01-15T20:33:23.962Z,83.49
2024-01-15T20:35:25.826Z,83.33
2024-01-15T20:37:27.883Z,83.08
2024-01-15T20:39:29.580Z,83.24
2024-01-15T20:41:31.407Z,83.19
2024-01-15T20:43:33.976Z,83.37
2024-01-15T20:45:35.673Z,83.18
2024-01-15T20:47:37.495Z,83.27
2024-01-15T20:49:39.684Z,82.99
2024-01-15T20:51:41.428Z,83.16
2024-01-15T20:53:43.506Z,83.22
2024-01-15T20:55:45.304Z,83.02
2024-01-15T20:57:47.042Z,83.19
2024-01-15T20:59:51.810Z,83.35
2024-01-15T21:01:53.879Z,83.36
2024-01-15T21:03:55.639Z,83.53
2024-01-15T21:05:58.563Z,83.58
2024-01-15T21:08:00.442Z,83.49
2024-01-15T21:10:02.281Z,83.69
2024-01-15T21:12:06.193Z,83.64
2024-01-15T21:14:09.158Z,83.93
2024-01-15T21:16:10.954Z,84.00
2024-01-15T21:18:13.210Z,83.97
2024-01-15T21:20:15.243Z,84.24
2024-01-15T21:22:18.281Z,84.20
2024-01-15T21:24:23.822Z,84.31
2024-01-15T21:26:25.618Z,84.46
2024-01-15T21:28:28.974Z,84.52
2024-01-15T21:30:34.376Z,84.42
2024-01-15T21:32:36.228Z,84.45
2024-01-15T21:34:38.384Z,84.72
2024-01-15T21:36:40.195Z,84.59
2024-01-15T21:38:42.009Z,84.58
2024-01-15T21:40:43.983Z,84.97
2024-01-15T21:42:45.727Z,85.00
2024-01-15T21:44:47.567Z,85.10
2024-01-15T21:46:49.352Z,85.01
2024-01-15T21:48:52.417Z,84.97
2024-01-15T21:50:54.266Z,85.08
2024-01-15T21:52:56.037Z,84.74
2024-01-15T21:54:57.720Z,84.90
2024-01-15T21:56:59.555Z,84.79
2024-01-15T21:59:01.484Z,84.84
2024-01-15T22:01:03.221Z,84.82
2024-01-15T22:03:06.715Z,84.86
2024-01-15T22:05:09.799Z,84.95
2024-01-15T22:07:11.585Z,84.71
2024-01-15T22:09:13.514Z,84.66
2024-01-15T22:11:15.797Z,84.63
2024-01-15T22:13:17.526Z,84.83
2024-01-15T22:15:19.697Z,84.89
2024-01-15T22:17:21.437Z,84.66
2024-01-15T22:19:23.338Z,84.73
2024-01-15T22:21:25.085Z,84.75
2024-01-15T22:23:26.845Z,84.94
2024-01-15T22:25:28.666Z,84.66
2024-01-15T22:27:30.412Z,84.95
2024-01-15T22:29:32.159Z,84.92
2024-01-15T22:31:33.980Z,84.86
2024-01-15T22:33:36.069Z,84.95
2024-01-15T22:35:38.129Z,84.93
2024-01-15T22:37:40.031Z,84.88
2024-01-15T22:39:41.875Z,84.88
2024-01-15T22:41:43.745Z,85.03
2024-01-15T22:43:46.916Z,85.12
2024-01-15T22:45:48.739Z,85.13
2024-01-15T22:47:50.664Z,85.21
2024-01-15T22:49:53.152Z,85.14
2024-01-15T22:51:54.875Z,84.82
2024-01-15T22:53:56.645Z,85.08
2024-01-15T22:55:58.510Z,85.11
2024-01-15T22:58:00.328Z,84.93
2024-01-15T23:00:02.158Z,85.06
2024-01-15T23:02:04.085Z,84.95
2024-01-15T23:04:06.014Z,85.15
2024-01-15T23:06:18.208Z,85.11
2024-01-15T23:08:20.092Z,85.14
2024-01-15T23:10:21.929Z,84.96
2024-01-15T23:12:23.629Z,85.22
2024-01-15T23:14:25.493Z,85.04
2024-01-15T23:16:27.214Z,85.31
2024-01-15T23:18:28.981Z,85.40
2024-01-15T23:20:30.981Z,85.60
2024-01-15T23:22:32.715Z,85.75
2024-01-15T23:24:34.445Z,85.57
2024-01-15T23:26:36.179Z,86.02
2024-01-15T23:28:37.927Z,85.97
2024-01-15T23:30:39.630Z,86.00
2024-01-15T23:32:42.010Z,86.16
2024-01-15T23:34:43.843Z,86.40
2024-01-15T23:36:46.340Z,86.41
2024-01-15T23:38:48.141Z,86.52
2024-01-15T23:40:49.869Z,86.58
2024-01-15T23:42:51.886Z,86.86
2024-01-15T23:44:53.660Z,86.93
2024-01-15T23:46:55.372Z,86.98
2024-01-15T23:48:57.234Z,87.14
2024-01-15T23:50:59.009Z,87.01
2024-01-15T23:53:00.821Z,86.84
2024-01-15T23:55:02.657Z,87.07
2024-01-15T23:57:05.516Z,86.93
2024-01-15T23:59:07.258Z,87.21
